Time;durP1;ratioP1;P1;durP2;ratioP2;P2;SDS_P1;SDS_P2;PMS_P1;PMS_P2;Temp;Humidity;BMP_temperature;BMP_pressure;BME280_temperature;BME280_humidity;BME280_pressure;Samples;Min_cycle;Max_cycle;Signal;HPM_P1;HPM_P2
2022/03/12 00:00:43;;;;;;;10.45;6.30;;;7.30;42.10;;;;;;5102020;27;20055;-69
2022/03/12 00:03:10;;;;;;;11.20;6.20;;;7.30;41.90;;;;;;5076226;28;20039;-69
2022/03/12 00:05:55;;;;;;;11.95;6.32;;;7.30;41.80;;;;;;5079990;28;20412;-69
2022/03/12 00:08:34;;;;;;;8.38;5.57;;;7.40;42.00;;;;;;5093196;28;20047;-69
2022/03/12 00:11:01;;;;;;;9.85;6.05;;;7.40;42.10;;;;;;5087934;28;20407;-69
2022/03/12 00:13:26;;;;;;;12.07;6.53;;;7.40;42.00;;;;;;5104214;28;20075;-69
2022/03/12 00:15:52;;;;;;;9.70;5.87;;;7.40;41.60;;;;;;5094697;28;20342;-69
2022/03/12 00:18:19;;;;;;;10.00;5.93;;;7.40;41.60;;;;;;5081489;28;20035;-69
2022/03/12 00:20:48;;;;;;;12.38;6.35;;;7.40;41.80;;;;;;5096929;28;20036;-69
2022/03/12 00:23:20;;;;;;;10.98;5.93;;;7.30;41.80;;;;;;5104111;28;20036;-69
2022/03/12 00:25:48;;;;;;;10.50;5.95;;;7.30;41.70;;;;;;5076080;28;20066;-69
2022/03/12 00:28:16;;;;;;;10.30;6.50;;;7.30;41.90;;;;;;5097059;28;20043;-69
2022/03/12 00:30:45;;;;;;;7.95;5.75;;;7.30;41.60;;;;;;5101099;28;20109;-69
2022/03/12 00:33:12;;;;;;;11.48;6.03;;;7.30;42.00;;;;;;5107257;27;20138;-69
2022/03/12 00:35:38;;;;;;;10.77;6.35;;;7.30;42.00;;;;;;5092175;28;20046;-69
2022/03/12 00:38:03;;;;;;;9.27;6.17;;;7.20;42.00;;;;;;5099458;28;20379;-69
2022/03/12 00:40:29;;;;;;;9.53;5.60;;;7.20;41.70;;;;;;5091872;28;20436;-69
2022/03/12 00:42:55;;;;;;;9.37;5.47;;;7.20;41.90;;;;;;5094908;28;20039;-69
2022/03/12 00:45:21;;;;;;;10.30;6.23;;;7.10;42.00;;;;;;5093097;28;20762;-69
2022/03/12 00:47:49;;;;;;;9.35;6.05;;;7.10;42.10;;;;;;5126465;27;20039;-69
2022/03/12 00:50:16;;;;;;;8.18;5.85;;;7.10;42.10;;;;;;5072052;28;20480;-69
2022/03/12 00:52:43;;;;;;;8.68;5.82;;;7.10;42.00;;;;;;5107174;28;20321;-69
2022/03/12 00:55:09;;;;;;;8.82;5.55;;;7.10;41.80;;;;;;5092252;28;20047;-69
2022/03/12 00:57:34;;;;;;;10.53;6.13;;;7.10;42.00;;;;;;5093662;27;20188;-69
2022/03/12 01:00:00;;;;;;;8.37;5.83;;;7.00;41.90;;;;;;5090828;28;20337;-69
2022/03/12 01:02:26;;;;;;;8.90;6.07;;;7.00;42.10;;;;;;5091075;28;20119;-69
2022/03/12 01:04:52;;;;;;;11.47;6.13;;;7.00;42.00;;;;;;5077504;28;20054;-69
2022/03/12 01:07:18;;;;;;;9.20;5.70;;;7.00;41.80;;;;;;5093970;28;20043;-69
2022/03/12 01:09:44;;;;;;;8.60;5.68;;;7.00;42.10;;;;;;5091829;28;20039;-69
2022/03/12 01:12:11;;;;;;;8.70;5.60;;;7.00;42.00;;;;;;5124078;27;20046;-69
2022/03/12 01:14:38;;;;;;;10.90;5.95;;;6.90;42.00;;;;;;5074321;28;20123;-69
2022/03/12 01:17:05;;;;;;;9.07;6.90;;;6.90;41.80;;;;;;5080340;28;20040;-69
2022/03/12 01:19:34;;;;;;;10.68;5.93;;;6.90;41.90;;;;;;5093015;28;20506;-69
2022/03/12 01:22:02;;;;;;;8.77;5.53;;;6.90;42.00;;;;;;5103533;28;20047;-69
2022/03/12 01:24:28;;;;;;;8.13;5.60;;;6.90;41.90;;;;;;5098545;28;20100;-69
2022/03/12 01:26:55;;;;;;;8.90;6.47;;;6.90;42.20;;;;;;5085048;28;20134;-69
2022/03/12 01:29:21;;;;;;;11.52;5.82;;;6.90;42.50;;;;;;5109391;27;20077;-69
2022/03/12 01:31:46;;;;;;;8.70;5.93;;;6.80;42.50;;;;;;5091147;28;20039;-69
2022/03/12 01:34:12;;;;;;;9.47;5.90;;;6.80;42.50;;;;;;5121776;27;20067;-69
2022/03/12 01:36:38;;;;;;;8.93;5.97;;;6.80;42.40;;;;;;5085749;28;20112;-69
2022/03/12 01:39:05;;;;;;;11.20;5.73;;;6.80;42.80;;;;;;5125743;27;20931;-69
2022/03/12 01:41:32;;;;;;;9.57;6.03;;;6.80;42.40;;;;;;5096618;28;20032;-69
2022/03/12 01:44:00;;;;;;;11.43;6.13;;;6.80;42.60;;;;;;5077107;28;20080;-69
2022/03/12 01:46:34;;;;;;;9.77;6.43;;;6.80;42.60;;;;;;5108348;28;20210;-69
2022/03/12 01:49:24;;;;;;;10.77;5.72;;;6.80;42.30;;;;;;5091536;28;20051;-69
2022/03/12 01:51:53;;;;;;;8.48;5.88;;;6.80;42.70;;;;;;5083288;28;20066;-69
2022/03/12 01:54:25;;;;;;;9.75;6.38;;;6.80;42.60;;;;;;5106759;28;20566;-69
2022/03/12 01:56:53;;;;;;;10.52;6.10;;;6.70;42.70;;;;;;5083230;28;20103;-69
2022/03/12 01:59:21;;;;;;;8.77;5.60;;;6.70;42.80;;;;;;5101233;28;20083;-69
2022/03/12 02:01:51;;;;;;;8.82;5.85;;;6.80;42.60;;;;;;5100912;28;20126;-69
2022/03/12 02:04:19;;;;;;;8.73;5.85;;;6.70;42.80;;;;;;5125039;27;20368;-69
2022/03/12 02:06:46;;;;;;;9.63;6.30;;;6.70;42.80;;;;;;5095245;27;20050;-69
2022/03/12 02:09:14;;;;;;;10.50;5.40;;;6.70;42.40;;;;;;5105773;28;20051;-69
2022/03/12 02:11:42;;;;;;;10.05;5.57;;;6.80;42.80;;;;;;5091391;28;20061;-69
2022/03/12 02:14:13;;;;;;;9.32;6.18;;;6.70;43.00;;;;;;5089052;28;20066;-69
2022/03/12 02:16:49;;;;;;;8.88;5.72;;;6.70;43.10;;;;;;5107506;28;20049;-69
2022/03/12 02:19:16;;;;;;;12.38;6.82;;;6.70;43.10;;;;;;5091358;28;20075;-69
2022/03/12 02:21:58;;;;;;;9.68;6.25;;;6.70;43.20;;;;;;5123474;27;20356;-69
2022/03/12 02:24:27;;;;;;;9.90;6.75;;;6.70;43.20;;;;;;5091269;28;20399;-69
2022/03/12 02:26:55;;;;;;;10.57;6.57;;;6.60;43.30;;;;;;5095476;28;20388;-69
2022/03/12 02:29:22;;;;;;;11.88;6.35;;;6.60;43.30;;;;;;5084903;28;20043;-69
2022/03/12 02:31:56;;;;;;;8.50;6.03;;;6.70;43.00;;;;;;5075089;28;20428;-69
2022/03/12 02:34:44;;;;;;;9.00;5.75;;;6.60;43.30;;;;;;5116347;27;20058;-69
2022/03/12 02:37:11;;;;;;;9.02;6.00;;;6.60;43.20;;;;;;5078193;28;20078;-69
2022/03/12 02:39:39;;;;;;;10.65;6.38;;;6.60;43.40;;;;;;5110668;27;20096;-69
2022/03/12 02:42:09;;;;;;;9.45;5.85;;;6.60;43.40;;;;;;5072683;28;20112;-69
2022/03/12 02:44:35;;;;;;;9.77;6.32;;;6.60;43.60;;;;;;5071978;28;20155;-69
2022/03/12 02:47:11;;;;;;;10.05;6.32;;;6.50;43.70;;;;;;5096936;28;20521;-69
2022/03/12 02:49:40;;;;;;;10.85;6.55;;;6.50;43.80;;;;;;5076595;28;20413;-69
2022/03/12 02:52:06;;;;;;;12.85;6.57;;;6.50;43.60;;;;;;5096144;28;20075;-69
2022/03/12 02:54:32;;;;;;;9.43;6.70;;;6.50;43.90;;;;;;5062578;28;20104;-69
2022/03/12 02:57:01;;;;;;;11.40;6.35;;;6.50;43.90;;;;;;5089976;28;20865;-69
2022/03/12 02:59:28;;;;;;;9.30;6.25;;;6.50;43.90;;;;;;5094002;28;20051;-69
2022/03/12 03:01:56;;;;;;;9.73;6.88;;;6.50;43.70;;;;;;5122899;27;20051;-69
2022/03/12 03:04:22;;;;;;;9.00;5.72;;;6.50;43.70;;;;;;5080920;28;20047;-69
2022/03/12 03:06:47;;;;;;;9.93;6.20;;;6.60;43.50;;;;;;5097699;28;20049;-69
2022/03/12 03:09:14;;;;;;;11.70;6.60;;;6.60;43.40;;;;;;5092424;27;20440;-69
2022/03/12 03:11:40;;;;;;;10.82;6.18;;;6.60;43.60;;;;;;5105211;28;20487;-69
2022/03/12 03:14:11;;;;;;;10.30;6.33;;;6.70;43.20;;;;;;5104724;28;20144;-69
2022/03/12 03:16:38;;;;;;;10.07;6.13;;;6.70;43.10;;;;;;5088488;28;20044;-69
2022/03/12 03:19:04;;;;;;;13.73;6.45;;;6.80;42.90;;;;;;5106187;28;20078;-69
2022/03/12 03:21:30;;;;;;;11.15;6.57;;;6.80;43.90;;;;;;5062182;28;20050;-69
2022/03/12 03:23:56;;;;;;;9.30;6.47;;;6.90;44.40;;;;;;5090599;28;20031;-69
2022/03/12 03:26:39;;;;;;;10.00;5.88;;;6.80;44.80;;;;;;5080333;27;20292;-69
2022/03/12 03:29:06;;;;;;;8.30;6.03;;;6.80;45.10;;;;;;5100490;28;20131;-69
2022/03/12 03:31:32;;;;;;;12.45;7.20;;;6.70;45.20;;;;;;5105078;28;20057;-69
2022/03/12 03:33:57;;;;;;;12.17;6.13;;;6.70;45.00;;;;;;5075235;28;20044;-69
2022/03/12 03:36:23;;;;;;;9.43;6.37;;;6.70;45.20;;;;;;5088303;28;20385;-69
2022/03/12 03:38:49;;;;;;;11.87;6.43;;;6.70;45.30;;;;;;5057165;28;20067;-69
2022/03/12 03:41:15;;;;;;;11.27;7.03;;;6.70;45.30;;;;;;5061001;28;20039;-69
2022/03/12 03:43:47;;;;;;;14.10;6.73;;;6.70;45.10;;;;;;5074125;28;20543;-69
2022/03/12 03:46:16;;;;;;;12.75;6.57;;;6.70;45.20;;;;;;5089353;28;20360;-69
2022/03/12 03:48:42;;;;;;;11.30;5.90;;;6.70;45.30;;;;;;5081348;28;20048;-69
2022/03/12 03:51:08;;;;;;;13.77;6.83;;;6.70;45.40;;;;;;5090576;28;20050;-69
2022/03/12 03:53:34;;;;;;;11.02;6.68;;;6.70;45.70;;;;;;5099448;28;20059;-69
2022/03/12 03:56:00;;;;;;;10.50;7.17;;;6.70;46.00;;;;;;5105269;28;20039;-69
2022/03/12 03:58:28;;;;;;;11.68;7.00;;;6.70;46.20;;;;;;5098915;28;20160;-69
2022/03/12 04:00:59;;;;;;;11.90;7.07;;;6.70;46.60;;;;;;5064113;28;20053;-69
2022/03/12 04:03:32;;;;;;;11.45;6.90;;;6.70;46.90;;;;;;5048623;28;20036;-69
2022/03/12 04:06:00;;;;;;;9.82;6.38;;;6.70;48.00;;;;;;5064471;28;20373;-69
2022/03/12 04:08:25;;;;;;;11.55;7.28;;;6.70;48.80;;;;;;5064784;28;20044;-69
2022/03/12 04:10:51;;;;;;;12.90;8.07;;;6.60;49.30;;;;;;5047509;28;20577;-69
2022/03/12 04:13:19;;;;;;;10.30;7.33;;;6.60;50.00;;;;;;5029269;28;20075;-69
2022/03/12 04:15:46;;;;;;;11.35;8.00;;;6.60;50.80;;;;;;5086466;28;20502;-69
2022/03/12 04:18:15;;;;;;;10.90;7.70;;;6.50;51.40;;;;;;5058618;28;20048;-69
2022/03/12 04:20:44;;;;;;;14.02;7.80;;;6.40;52.10;;;;;;5047168;28;20057;-69
2022/03/12 04:23:12;;;;;;;15.48;7.70;;;6.40;52.40;;;;;;5065406;28;20493;-69
2022/03/12 04:25:39;;;;;;;11.88;8.15;;;6.30;53.10;;;;;;5032374;28;20101;-69
2022/03/12 04:28:06;;;;;;;11.30;7.82;;;6.20;54.10;;;;;;5081040;28;20579;-69
2022/03/12 04:30:32;;;;;;;12.98;7.90;;;6.20;54.10;;;;;;5064298;28;20413;-69
2022/03/12 04:32:58;;;;;;;13.25;8.15;;;6.10;55.00;;;;;;5050518;28;20040;-69
2022/03/12 04:35:25;;;;;;;13.07;8.60;;;6.10;55.40;;;;;;5066241;28;20068;-69
2022/03/12 04:37:52;;;;;;;14.15;8.23;;;6.00;55.80;;;;;;5064282;28;20037;-69
2022/03/12 04:40:22;;;;;;;13.13;8.13;;;6.00;56.40;;;;;;5030671;28;20463;-69
2022/03/12 04:42:48;;;;;;;14.32;8.13;;;6.00;56.20;;;;;;5047797;28;20052;-69
2022/03/12 04:45:17;;;;;;;12.97;8.70;;;6.00;56.70;;;;;;5058851;28;20029;-69
2022/03/12 04:47:44;;;;;;;14.57;8.52;;;6.00;56.80;;;;;;5096140;28;20051;-69
2022/03/12 04:50:12;;;;;;;14.68;8.85;;;6.00;57.10;;;;;;5079888;28;20048;-69
2022/03/12 04:52:42;;;;;;;18.58;9.02;;;5.90;57.80;;;;;;5081128;28;20095;-69
2022/03/12 04:55:13;;;;;;;16.38;8.30;;;5.90;57.70;;;;;;5064492;28;20135;-69
2022/03/12 04:57:40;;;;;;;12.88;8.70;;;5.90;57.80;;;;;;5064415;28;20041;-69
2022/03/12 05:00:09;;;;;;;13.68;8.93;;;5.80;58.20;;;;;;5068935;28;20059;-69
2022/03/12 05:02:35;;;;;;;13.52;9.32;;;5.80;58.30;;;;;;5077884;28;20052;-69
2022/03/12 05:05:01;;;;;;;14.95;9.15;;;5.80;58.00;;;;;;5091771;28;20040;-69
2022/03/12 05:07:27;;;;;;;17.27;8.90;;;5.80;58.60;;;;;;5070236;28;20404;-69
2022/03/12 05:09:55;;;;;;;13.60;8.68;;;5.70;59.30;;;;;;5051314;28;20119;-69
2022/03/12 05:12:24;;;;;;;14.32;9.52;;;5.70;59.30;;;;;;5102278;28;20047;-69
2022/03/12 05:14:51;;;;;;;15.27;8.98;;;5.70;59.20;;;;;;5090106;28;20036;-69
2022/03/12 05:17:18;;;;;;;14.57;9.00;;;5.60;59.60;;;;;;5092717;28;20369;-69
2022/03/12 05:19:45;;;;;;;14.73;9.40;;;5.60;59.80;;;;;;5076023;28;20094;-69
2022/03/12 05:22:11;;;;;;;14.05;8.65;;;5.50;60.10;;;;;;5087536;28;20134;-69
2022/03/12 05:24:36;;;;;;;16.30;9.63;;;5.50;60.20;;;;;;5079452;28;20274;-68
2022/03/12 05:27:04;;;;;;;12.83;9.57;;;5.50;60.10;;;;;;5081479;28;20597;-68
2022/03/12 05:29:31;;;;;;;13.48;8.20;;;5.40;60.20;;;;;;5100864;28;20047;-68
2022/03/12 05:31:56;;;;;;;15.80;8.93;;;5.40;60.00;;;;;;5088469;28;20093;-68
2022/03/12 05:34:25;;;;;;;13.67;9.40;;;5.40;59.90;;;;;;5071945;28;20039;-68
2022/03/12 05:36:52;;;;;;;16.85;9.48;;;5.30;60.30;;;;;;5088238;28;20047;-68
2022/03/12 05:39:19;;;;;;;14.50;9.32;;;5.30;59.90;;;;;;5073530;28;20454;-68
2022/03/12 05:41:48;;;;;;;11.82;8.57;;;5.30;59.20;;;;;;5088718;28;20496;-68
2022/03/12 05:44:14;;;;;;;14.05;8.98;;;5.40;58.80;;;;;;5072718;28;20104;-68
2022/03/12 05:46:44;;;;;;;12.80;8.52;;;5.40;58.60;;;;;;5095491;28;20043;-68
2022/03/12 05:49:10;;;;;;;13.98;8.80;;;5.40;58.50;;;;;;5081047;28;20054;-68
2022/03/12 05:51:36;;;;;;;14.85;9.23;;;5.30;58.50;;;;;;5073058;28;20067;-68
2022/03/12 05:54:03;;;;;;;14.60;9.25;;;5.30;58.30;;;;;;5097289;28;20518;-68
2022/03/12 05:56:29;;;;;;;13.77;9.00;;;5.30;58.80;;;;;;5071757;28;20176;-68
2022/03/12 05:58:55;;;;;;;13.25;8.40;;;5.20;58.40;;;;;;5072292;28;20152;-68
2022/03/12 06:01:21;;;;;;;14.73;8.57;;;5.10;58.30;;;;;;5123086;27;20188;-68
2022/03/12 06:03:47;;;;;;;14.03;9.40;;;5.00;58.50;;;;;;5090643;28;20713;-68
2022/03/12 06:06:14;;;;;;;13.10;8.73;;;5.00;58.60;;;;;;5078813;28;20411;-68
2022/03/12 06:08:40;;;;;;;13.30;8.90;;;4.90;58.50;;;;;;5098342;28;20042;-68
2022/03/12 06:11:06;;;;;;;13.90;8.50;;;4.80;58.80;;;;;;5096999;28;20058;-68
2022/03/12 06:13:32;;;;;;;13.85;9.48;;;4.70;59.00;;;;;;5076300;28;20039;-68
2022/03/12 06:16:00;;;;;;;15.30;9.07;;;4.60;58.80;;;;;;5097221;28;20431;-68
2022/03/12 06:18:34;;;;;;;19.55;8.60;;;4.60;59.10;;;;;;5124350;27;20042;-69
2022/03/12 06:21:00;;;;;;;11.35;7.63;;;4.50;58.80;;;;;;5106692;28;20042;-68
2022/03/12 06:23:28;;;;;;;13.52;8.75;;;4.50;59.20;;;;;;5073109;28;20043;-68
2022/03/12 06:25:54;;;;;;;13.60;8.18;;;4.40;58.90;;;;;;5074231;28;20399;-68
2022/03/12 06:28:21;;;;;;;16.03;8.87;;;4.40;59.00;;;;;;5124381;27;20355;-68
2022/03/12 06:30:49;;;;;;;13.63;8.77;;;4.40;59.00;;;;;;5123380;27;20370;-68
2022/03/12 06:33:17;;;;;;;13.80;8.77;;;4.40;58.90;;;;;;5123716;27;20036;-68
2022/03/12 06:35:43;;;;;;;13.98;8.90;;;4.30;58.90;;;;;;5082765;28;20613;-68
2022/03/12 06:38:10;;;;;;;15.05;9.23;;;4.40;59.10;;;;;;5075531;28;20118;-69
2022/03/12 06:40:36;;;;;;;13.00;8.52;;;4.40;59.00;;;;;;5091891;27;20148;-68
2022/03/12 06:43:05;;;;;;;14.80;8.93;;;4.40;58.80;;;;;;5091368;28;20031;-68
2022/03/12 06:45:32;;;;;;;14.20;9.18;;;4.40;58.70;;;;;;5106106;28;20047;-68
2022/03/12 06:47:58;;;;;;;13.50;8.80;;;4.50;58.50;;;;;;5061714;28;20470;-69
2022/03/12 06:50:25;;;;;;;13.00;8.30;;;4.50;58.70;;;;;;5105215;27;20047;-69
2022/03/12 06:52:51;;;;;;;17.08;8.55;;;4.60;58.30;;;;;;5095900;28;20039;-69
2022/03/12 06:55:20;;;;;;;17.05;8.70;;;4.70;58.10;;;;;;5089352;28;20152;-69
2022/03/12 06:57:48;;;;;;;14.23;8.50;;;4.80;58.10;;;;;;5107232;28;20044;-69
2022/03/12 07:00:17;;;;;;;12.40;8.00;;;4.90;57.70;;;;;;5121971;27;20051;-69
2022/03/12 07:02:43;;;;;;;14.07;8.73;;;5.10;57.60;;;;;;5073583;28;20122;-69
2022/03/12 07:05:10;;;;;;;14.60;8.80;;;5.20;57.30;;;;;;5106153;28;20442;-68
2022/03/12 07:07:35;;;;;;;13.77;8.43;;;5.30;56.90;;;;;;5083449;28;20099;-69
2022/03/12 07:10:01;;;;;;;14.40;8.13;;;5.50;56.30;;;;;;5081300;28;20048;-69
2022/03/12 07:12:27;;;;;;;14.23;9.27;;;5.60;56.20;;;;;;5098088;28;20419;-69
2022/03/12 07:14:53;;;;;;;14.80;8.57;;;5.70;55.90;;;;;;5071762;28;20475;-69
2022/03/12 07:17:18;;;;;;;17.90;9.70;;;5.80;55.80;;;;;;5089114;28;20502;-69
2022/03/12 07:19:44;;;;;;;13.77;9.10;;;5.90;55.70;;;;;;5123749;27;20043;-69
2022/03/12 07:22:10;;;;;;;10.93;8.00;;;6.00;55.70;;;;;;5101032;28;20088;-69
2022/03/12 07:24:36;;;;;;;14.20;8.77;;;6.10;55.60;;;;;;5106309;28;20476;-69
2022/03/12 07:27:02;;;;;;;13.33;8.87;;;6.30;55.30;;;;;;5092761;28;20051;-69
2022/03/12 07:29:31;;;;;;;16.30;9.13;;;6.40;54.90;;;;;;5123739;27;20375;-69
2022/03/12 07:31:57;;;;;;;13.50;8.60;;;6.50;54.80;;;;;;5055325;28;20404;-69
2022/03/12 07:34:24;;;;;;;14.90;9.03;;;6.60;54.30;;;;;;5116061;27;20046;-69
2022/03/12 07:36:50;;;;;;;12.65;8.40;;;6.80;54.50;;;;;;5106300;28;20560;-69
2022/03/12 07:39:16;;;;;;;13.60;9.68;;;6.90;54.30;;;;;;5105428;28;20076;-69
2022/03/12 07:41:41;;;;;;;13.13;8.53;;;7.00;54.30;;;;;;5102977;28;20039;-69
2022/03/12 07:44:07;;;;;;;14.13;9.23;;;7.10;54.20;;;;;;5076494;27;20040;-69
2022/03/12 07:46:34;;;;;;;14.32;9.65;;;7.20;54.00;;;;;;5116885;27;20035;-69
2022/03/12 07:49:00;;;;;;;14.55;9.60;;;7.30;54.20;;;;;;5105602;28;20039;-69
2022/03/12 07:51:27;;;;;;;14.32;8.88;;;7.40;53.90;;;;;;5087762;28;20043;-69
2022/03/12 07:53:52;;;;;;;12.65;8.80;;;7.50;53.70;;;;;;5090745;28;20075;-69
2022/03/12 07:56:19;;;;;;;17.70;9.60;;;7.70;52.90;;;;;;5077196;28;20073;-69
2022/03/12 07:58:44;;;;;;;15.55;9.20;;;7.80;53.10;;;;;;5077344;28;20051;-69
2022/03/12 08:01:10;;;;;;;13.47;9.63;;;7.90;53.20;;;;;;5087895;28;20052;-69
2022/03/12 08:03:36;;;;;;;14.90;9.00;;;8.00;53.40;;;;;;5102833;28;20039;-69
2022/03/12 08:06:06;;;;;;;15.10;9.65;;;8.10;53.50;;;;;;5103361;27;20077;-69
2022/03/12 08:08:33;;;;;;;15.70;9.18;;;8.30;53.40;;;;;;5085420;28;20097;-69
2022/03/12 08:13:45;;;;;;;14.02;9.23;;;8.50;53.30;;;;;;5094588;28;20108;-69
2022/03/12 08:16:16;;;;;;;14.18;9.70;;;8.70;53.00;;;;;;5074111;28;20036;-69
2022/03/12 08:18:43;;;;;;;18.48;10.13;;;8.80;53.30;;;;;;5055422;28;20440;-69
2022/03/12 08:21:10;;;;;;;15.00;9.43;;;8.80;53.10;;;;;;5068897;28;20354;-69
2022/03/12 08:23:37;;;;;;;15.80;10.27;;;8.90;53.10;;;;;;5087463;28;20032;-69
2022/03/12 08:26:03;;;;;;;13.63;9.80;;;9.00;53.10;;;;;;5073943;28;20055;-69
2022/03/12 08:28:29;;;;;;;14.57;9.95;;;9.00;53.40;;;;;;5070544;28;20122;-69
2022/03/12 08:30:54;;;;;;;14.60;10.13;;;9.10;53.50;;;;;;5069649;28;20059;-69
2022/03/12 08:33:20;;;;;;;15.57;10.50;;;9.20;53.10;;;;;;5103319;28;20423;-69
2022/03/12 08:35:49;;;;;;;17.67;11.07;;;9.30;53.10;;;;;;5068757;28;20039;-69
2022/03/12 08:38:15;;;;;;;15.88;10.60;;;9.30;53.10;;;;;;5088668;28;20415;-70
2022/03/12 08:40:41;;;;;;;18.10;11.07;;;9.40;53.20;;;;;;5054333;28;20035;-70
2022/03/12 08:43:07;;;;;;;18.42;10.77;;;9.50;53.30;;;;;;5089397;28;20044;-70
2022/03/12 08:45:33;;;;;;;15.87;10.50;;;9.60;53.20;;;;;;5070816;28;20123;-70
2022/03/12 08:47:59;;;;;;;17.47;10.63;;;9.70;53.30;;;;;;5091925;28;20292;-70
2022/03/12 08:50:25;;;;;;;15.73;11.43;;;9.80;53.30;;;;;;5080358;28;20577;-70
2022/03/12 08:52:52;;;;;;;19.17;11.50;;;9.80;53.50;;;;;;5107855;27;20284;-70
2022/03/12 08:55:18;;;;;;;16.23;10.77;;;9.90;53.80;;;;;;5075365;28;20042;-70
2022/03/12 08:57:44;;;;;;;19.00;12.03;;;10.00;54.10;;;;;;5092985;28;20467;-70
2022/03/12 09:00:12;;;;;;;16.40;11.00;;;10.10;54.40;;;;;;5124142;27;20114;-70
2022/03/12 09:02:39;;;;;;;17.50;11.55;;;10.10;54.70;;;;;;5075565;28;20055;-70
2022/03/12 09:05:07;;;;;;;18.42;10.93;;;10.20;55.00;;;;;;5095947;28;20043;-70
2022/03/12 09:07:33;;;;;;;16.45;11.10;;;10.20;55.30;;;;;;5090094;28;20062;-70
2022/03/12 09:09:59;;;;;;;15.75;10.85;;;10.30;55.40;;;;;;5105010;28;20031;-70
2022/03/12 09:12:25;;;;;;;17.20;11.40;;;10.30;55.50;;;;;;5079763;28;20913;-70
2022/03/12 09:14:52;;;;;;;16.80;11.00;;;10.40;55.60;;;;;;5100158;28;20039;-70
2022/03/12 09:17:17;;;;;;;17.05;10.70;;;10.50;55.70;;;;;;5078977;28;20472;-69
2022/03/12 09:19:43;;;;;;;15.73;10.97;;;10.60;55.60;;;;;;5092590;28;20031;-69
2022/03/12 09:22:09;;;;;;;13.77;10.00;;;10.60;55.80;;;;;;5056870;28;20046;-69
2022/03/12 09:24:38;;;;;;;17.25;10.32;;;10.70;56.20;;;;;;5090246;28;20463;-69
2022/03/12 09:27:05;;;;;;;14.35;9.65;;;10.70;56.60;;;;;;5120423;27;20051;-70
2022/03/12 09:29:32;;;;;;;15.00;9.70;;;10.80;56.30;;;;;;5091552;28;20048;-70
2022/03/12 09:31:59;;;;;;;13.02;9.45;;;10.80;56.50;;;;;;5090426;28;20047;-70
2022/03/12 09:34:25;;;;;;;14.63;9.60;;;10.90;56.50;;;;;;5074830;28;20478;-70
2022/03/12 09:36:51;;;;;;;13.15;9.55;;;11.00;56.20;;;;;;5073387;28;20042;-70
2022/03/12 09:39:17;;;;;;;14.97;10.13;;;11.00;56.40;;;;;;5072380;28;20475;-70
2022/03/12 09:41:43;;;;;;;12.20;9.60;;;11.10;56.50;;;;;;5120833;27;20032;-70
2022/03/12 09:44:09;;;;;;;12.90;9.68;;;11.20;56.30;;;;;;5089118;28;20055;-70
2022/03/12 09:46:36;;;;;;;15.30;9.35;;;11.20;56.40;;;;;;5106676;28;20400;-70
2022/03/12 09:49:03;;;;;;;13.88;8.73;;;11.20;56.40;;;;;;5107674;27;20595;-70
2022/03/12 09:51:31;;;;;;;14.20;9.05;;;11.20;56.70;;;;;;5122800;27;20516;-70
2022/03/12 09:53:57;;;;;;;13.82;8.48;;;11.30;57.10;;;;;;5090425;28;20044;-70
2022/03/12 09:56:24;;;;;;;13.88;9.27;;;11.30;57.30;;;;;;5071326;28;20419;-70
2022/03/12 09:58:50;;;;;;;13.52;8.85;;;11.40;57.50;;;;;;5088135;28;20492;-70
2022/03/12 10:01:16;;;;;;;10.60;8.40;;;11.40;57.80;;;;;;5121639;27;20093;-70
2022/03/12 10:03:44;;;;;;;12.02;8.32;;;11.50;57.80;;;;;;5087337;28;20273;-70
2022/03/12 10:06:10;;;;;;;14.68;8.60;;;11.50;58.10;;;;;;5088666;28;20096;-70
2022/03/12 10:08:37;;;;;;;14.07;9.27;;;11.60;58.10;;;;;;5121537;27;20047;-70
2022/03/12 10:11:07;;;;;;;11.50;8.15;;;11.60;58.30;;;;;;5084082;28;20043;-70
2022/03/12 10:13:33;;;;;;;11.85;8.07;;;11.60;58.40;;;;;;5090542;27;20036;-70
2022/03/12 10:15:59;;;;;;;10.90;7.83;;;11.60;58.80;;;;;;5124317;27;20043;-70
2022/03/12 10:18:25;;;;;;;12.75;8.25;;;11.70;58.80;;;;;;5125599;27;20043;-70
2022/03/12 10:20:52;;;;;;;11.32;7.30;;;11.80;59.00;;;;;;5109648;27;20065;-70
2022/03/12 10:23:17;;;;;;;12.18;7.15;;;11.90;59.30;;;;;;5092247;28;20035;-70
2022/03/12 10:25:43;;;;;;;9.47;6.33;;;12.10;58.80;;;;;;5098048;28;20403;-70
2022/03/12 10:28:10;;;;;;;14.30;6.90;;;12.20;58.80;;;;;;5057479;28;20040;-70
2022/03/12 10:30:35;;;;;;;11.45;6.93;;;12.20;58.70;;;;;;5123239;27;20044;-70
2022/03/12 10:33:01;;;;;;;11.43;6.90;;;12.40;58.50;;;;;;5123181;27;20066;-70
2022/03/12 10:35:34;;;;;;;8.60;5.93;;;12.40;58.50;;;;;;5092902;28;20488;-70
2022/03/12 10:38:00;;;;;;;9.65;6.35;;;12.50;57.90;;;;;;5092329;28;20040;-70
2022/03/12 10:40:27;;;;;;;9.50;6.35;;;12.50;58.00;;;;;;5086411;28;20442;-70
2022/03/12 10:42:56;;;;;;;10.68;6.20;;;12.60;58.20;;;;;;5079816;27;20031;-70
2022/03/12 10:45:25;;;;;;;10.32;5.22;;;12.70;58.30;;;;;;5090808;28;20436;-70
2022/03/12 10:47:56;;;;;;;8.77;5.55;;;12.80;57.70;;;;;;5090472;28;20043;-71
2022/03/12 10:50:27;;;;;;;9.63;5.18;;;12.90;57.50;;;;;;5076237;28;20051;-70
2022/03/12 10:52:56;;;;;;;8.80;5.88;;;13.00;57.30;;;;;;5092075;28;20071;-70
2022/03/12 10:55:28;;;;;;;7.65;5.07;;;13.10;57.30;;;;;;5123147;27;20116;-70
2022/03/12 10:58:17;;;;;;;8.13;4.80;;;13.20;57.10;;;;;;5088076;28;20360;-70
2022/03/12 11:01:00;;;;;;;8.27;4.78;;;13.30;56.80;;;;;;5087698;27;20285;-70
2022/03/12 11:03:37;;;;;;;10.30;4.70;;;13.40;56.40;;;;;;5121391;27;20396;-70
2022/03/12 11:06:05;;;;;;;6.17;3.83;;;13.40;56.30;;;;;;5074688;28;20040;-70
2022/03/12 11:08:35;;;;;;;5.85;3.75;;;13.40;56.00;;;;;;5102105;28;20788;-70
2022/03/12 11:11:16;;;;;;;8.13;4.00;;;13.50;55.80;;;;;;5072511;28;20535;-70
2022/03/12 11:13:47;;;;;;;7.47;3.70;;;13.60;55.60;;;;;;5083149;28;20346;-70
2022/03/12 11:16:24;;;;;;;6.57;3.60;;;13.70;55.50;;;;;;5106666;27;20709;-70
2022/03/12 11:18:52;;;;;;;9.90;4.53;;;13.80;55.10;;;;;;5066076;28;20288;-70
2022/03/12 11:21:30;;;;;;;6.93;4.20;;;13.90;54.60;;;;;;5096649;28;20278;-70
2022/03/12 11:23:57;;;;;;;8.23;4.20;;;13.90;54.60;;;;;;5112543;27;20270;-70
2022/03/12 11:26:24;;;;;;;8.70;3.53;;;13.90;54.70;;;;;;5128886;27;20948;-70
2022/03/12 11:28:58;;;;;;;8.10;3.80;;;13.80;53.90;;;;;;5098206;28;20319;-70
2022/03/12 11:31:44;;;;;;;7.17;3.87;;;13.90;54.30;;;;;;5119893;27;20285;-70
2022/03/12 11:34:42;;;;;;;5.67;3.80;;;13.90;53.60;;;;;;5089394;28;20296;-70
2022/03/12 11:37:14;;;;;;;7.40;3.93;;;14.00;53.40;;;;;;5077272;28;20338;-70
2022/03/12 11:39:45;;;;;;;5.87;3.83;;;14.10;53.60;;;;;;5070411;28;20292;-70
2022/03/12 11:42:15;;;;;;;6.40;3.50;;;14.10;53.30;;;;;;5089016;28;20285;-70
2022/03/12 11:44:44;;;;;;;7.13;3.90;;;14.10;53.20;;;;;;5121496;27;20696;-70
2022/03/12 11:47:11;;;;;;;6.57;3.80;;;14.00;53.40;;;;;;5123110;27;20285;-70
2022/03/12 11:49:38;;;;;;;7.30;3.80;;;14.00;53.40;;;;;;5089463;28;20290;-70
2022/03/12 11:52:04;;;;;;;7.83;4.13;;;14.00;53.10;;;;;;5070540;28;20289;-70
2022/03/12 11:54:30;;;;;;;8.23;3.67;;;14.00;53.00;;;;;;5091671;28;20807;-70
2022/03/12 11:56:59;;;;;;;6.30;3.30;;;14.10;53.10;;;;;;5088143;28;20350;-70
2022/03/12 11:59:26;;;;;;;7.63;3.47;;;14.10;52.60;;;;;;5102253;28;20277;-70
2022/03/12 12:02:14;;;;;;;6.23;3.47;;;14.10;52.60;;;;;;5092673;28;20738;-70
2022/03/12 12:04:40;;;;;;;7.23;3.73;;;14.20;52.90;;;;;;5096346;28;20342;-70
2022/03/12 12:07:06;;;;;;;8.13;3.90;;;14.20;53.10;;;;;;5076226;28;20293;-70
2022/03/12 12:09:32;;;;;;;6.60;3.50;;;14.30;53.20;;;;;;5070545;28;20044;-70
2022/03/12 12:12:01;;;;;;;6.63;4.40;;;14.40;53.10;;;;;;5088441;28;20781;-70
2022/03/12 12:14:28;;;;;;;8.37;3.93;;;14.40;52.70;;;;;;5097187;28;20289;-70
2022/03/12 12:16:59;;;;;;;5.73;3.83;;;14.40;52.40;;;;;;5105106;28;20329;-71
2022/03/12 12:19:28;;;;;;;6.80;3.90;;;14.40;52.50;;;;;;5086532;28;20786;-71
2022/03/12 12:21:54;;;;;;;7.23;3.47;;;14.50;51.90;;;;;;5099034;28;20380;-71
2022/03/12 12:24:39;;;;;;;8.77;3.90;;;14.50;51.80;;;;;;5093384;28;20365;-71
2022/03/12 12:27:08;;;;;;;8.55;3.83;;;14.50;51.50;;;;;;5093257;28;20118;-71
2022/03/12 12:29:54;;;;;;;7.47;4.00;;;14.50;51.60;;;;;;5107036;28;20574;-71
2022/03/12 12:32:29;;;;;;;7.10;4.00;;;14.60;51.80;;;;;;5081824;28;20327;-71
2022/03/12 12:35:04;;;;;;;7.13;4.40;;;14.80;51.60;;;;;;5099899;28;20289;-71
2022/03/12 12:37:39;;;;;;;8.55;4.10;;;14.80;51.60;;;;;;5119370;28;20289;-71
2022/03/12 12:40:29;;;;;;;9.20;4.00;;;14.90;51.40;;;;;;5070338;28;20039;-71
2022/03/12 12:42:57;;;;;;;7.50;3.90;;;14.90;50.70;;;;;;5120838;27;20040;-71
2022/03/12 12:45:26;;;;;;;7.67;4.00;;;15.00;51.30;;;;;;5075445;28;20282;-71
2022/03/12 12:48:14;;;;;;;11.80;4.47;;;15.10;50.90;;;;;;5073111;28;20640;-71
2022/03/12 12:50:58;;;;;;;5.37;3.87;;;15.10;50.30;;;;;;5101519;28;20357;-71
2022/03/12 12:53:35;;;;;;;7.13;4.30;;;15.10;50.30;;;;;;5075449;28;20285;-71